createdAt,value
2022-12-10T00:01:41.378Z,65.03
2022-12-10T00:04:09.733Z,65.47
2022-12-10T00:06:40.367Z,63.77
2022-12-10T00:09:12.681Z,60.93
2022-12-10T00:11:41.489Z,61.50
2022-12-10T00:14:13.063Z,63.03
2022-12-10T00:16:42.116Z,58.63
2022-12-10T00:19:10.430Z,63.50
2022-12-10T00:21:39.476Z,57.23
2022-12-10T00:24:08.318Z,63.33
2022-12-10T00:26:38.622Z,61.63
2022-12-10T00:29:08.592Z,66.87
2022-12-10T00:31:39.725Z,63.97
2022-12-10T00:34:10.922Z,60.63
2022-12-10T00:36:41.418Z,64.80
2022-12-10T00:39:09.668Z,64.17
2022-12-10T00:41:37.945Z,63.07
2022-12-10T00:44:07.026Z,61.07
2022-12-10T00:46:35.488Z,61.37
2022-12-10T00:49:05.365Z,58.20
2022-12-10T00:51:34.023Z,60.63
2022-12-10T00:54:02.593Z,58.73
2022-12-10T00:56:34.527Z,65.07
2022-12-10T00:59:03.571Z,64.20
2022-12-10T01:01:33.908Z,66.83
2022-12-10T01:04:05.634Z,67.97
2022-12-10T01:06:35.970Z,63.63
2022-12-10T01:09:08.036Z,64.60
2022-12-10T01:11:39.279Z,65.87
2022-12-10T01:14:09.169Z,69.90
2022-12-10T01:16:37.663Z,70.90
2022-12-10T01:19:07.751Z,66.50
2022-12-10T01:21:36.750Z,70.07
2022-12-10T01:24:05.552Z,67.60
2022-12-10T01:26:35.939Z,68.23
2022-12-10T01:29:05.649Z,63.77
2022-12-10T01:31:35.966Z,61.80
2022-12-10T01:34:07.731Z,67.50
2022-12-10T01:36:38.072Z,67.33
2022-12-10T01:39:08.542Z,66.50
2022-12-10T01:41:39.066Z,69.77
2022-12-10T01:44:45.719Z,69.27
2022-12-10T01:47:14.106Z,67.77
2022-12-10T01:49:43.797Z,67.23
2022-12-10T01:52:14.506Z,70.33
2022-12-10T01:54:45.013Z,67.20
2022-12-10T01:57:17.118Z,61.97
2022-12-10T01:59:47.599Z,68.37
2022-12-10T02:02:24.865Z,65.47
2022-12-10T02:05:04.662Z,61.53
2022-12-10T02:07:42.794Z,71.70
2022-12-10T02:10:19.856Z,65.37
2022-12-10T02:12:53.834Z,73.03
2022-12-10T02:15:26.875Z,70.00
2022-12-10T02:17:58.894Z,74.03
2022-12-10T02:20:37.568Z,70.30
2022-12-10T02:23:12.262Z,69.63
2022-12-10T02:25:47.948Z,63.97
2022-12-10T02:28:24.785Z,69.87
2022-12-10T02:30:55.812Z,72.10
2022-12-10T02:33:26.543Z,66.87
2022-12-10T02:35:57.534Z,69.50
2022-12-10T02:38:29.414Z,69.07
2022-12-10T02:41:04.031Z,72.93
2022-12-10T02:43:35.402Z,69.87
2022-12-10T02:46:08.117Z,73.40
2022-12-10T02:48:38.615Z,69.17
2022-12-10T02:51:07.144Z,70.37
2022-12-10T02:53:42.955Z,73.47
2022-12-10T02:56:19.887Z,69.60
2022-12-10T02:59:02.437Z,68.77
2022-12-10T03:01:44.920Z,70.60
2022-12-10T03:04:16.987Z,69.17
2022-12-10T03:06:49.208Z,74.33
2022-12-10T03:09:22.038Z,73.67
2022-12-10T03:11:58.575Z,69.63
2022-12-10T03:14:29.944Z,74.00
2022-12-10T03:17:01.391Z,69.70
2022-12-10T03:19:34.638Z,70.70
2022-12-10T03:22:05.093Z,69.07
2022-12-10T03:24:35.081Z,71.33
2022-12-10T03:27:05.590Z,73.83
2022-12-10T03:29:37.031Z,70.40
2022-12-10T03:32:08.294Z,73.50
2022-12-10T03:34:37.867Z,69.10
2022-12-10T03:37:07.207Z,72.70
2022-12-10T03:39:36.068Z,75.00
2022-12-10T03:42:04.354Z,74.23
2022-12-10T03:44:34.084Z,79.30
2022-12-10T03:47:03.109Z,73.07
2022-12-10T03:49:32.864Z,70.97
2022-12-10T03:52:01.147Z,71.27
2022-12-10T03:54:29.438Z,69.50
2022-12-10T03:56:57.757Z,77.97
2022-12-10T03:59:26.011Z,75.33
2022-12-10T04:01:55.582Z,74.43
2022-12-10T04:04:23.933Z,70.27
2022-12-10T04:07:10.135Z,80.10
2022-12-10T04:09:38.502Z,76.57
2022-12-10T04:12:07.220Z,77.43
2022-12-10T04:14:53.169Z,72.80
2022-12-10T04:17:21.438Z,78.40
2022-12-10T04:19:49.963Z,81.67
2022-12-10T04:22:37.387Z,75.37
2022-12-10T04:25:23.654Z,80.77
2022-12-10T04:27:51.988Z,77.27
2022-12-10T04:30:20.669Z,83.17
2022-12-10T04:32:49.023Z,78.50
2022-12-10T04:35:17.442Z,77.97
2022-12-10T04:37:47.169Z,82.53
2022-12-10T04:40:15.739Z,84.17
2022-12-10T04:42:43.940Z,80.90
2022-12-10T04:45:12.462Z,84.20
2022-12-10T04:47:40.697Z,91.07
2022-12-10T04:50:09.949Z,78.77
2022-12-10T04:52:38.468Z,91.67
2022-12-10T04:55:08.975Z,93.47
2022-12-10T04:57:37.438Z,84.80
2022-12-10T05:00:06.675Z,88.73
2022-12-10T05:02:35.215Z,89.00
2022-12-10T05:05:03.795Z,87.53
2022-12-10T05:07:32.104Z,90.03
2022-12-10T05:10:00.378Z,91.83
2022-12-10T05:12:30.119Z,88.10
2022-12-10T05:14:58.484Z,98.40
2022-12-10T05:17:26.797Z,95.17
2022-12-10T05:19:55.036Z,86.50
2022-12-10T05:22:40.899Z,90.70
2022-12-10T05:25:10.008Z,82.80
2022-12-10T05:27:39.650Z,96.33
2022-12-10T05:30:10.778Z,89.57
2022-12-10T05:32:39.287Z,94.93
2022-12-10T05:35:08.358Z,89.00
2022-12-10T05:37:36.765Z,87.57
2022-12-10T05:40:06.163Z,88.57
2022-12-10T05:42:34.535Z,94.43
2022-12-10T05:45:04.384Z,89.43
2022-12-10T05:47:32.603Z,94.77
2022-12-10T05:50:01.292Z,94.13
2022-12-10T05:52:29.570Z,88.13
2022-12-10T05:54:57.914Z,87.23
2022-12-10T05:57:26.136Z,94.17
2022-12-10T05:59:54.306Z,88.07
2022-12-10T06:02:24.234Z,94.70
2022-12-10T06:04:52.608Z,86.57
2022-12-10T06:07:20.933Z,84.83
2022-12-10T06:09:49.208Z,91.77
2022-12-10T06:12:17.754Z,95.13
2022-12-10T06:14:46.039Z,85.53
2022-12-10T06:17:14.408Z,92.67
2022-12-10T06:19:44.344Z,81.10
2022-12-10T06:22:13.820Z,85.87
2022-12-10T06:24:42.105Z,85.90
2022-12-10T06:27:10.514Z,89.83
2022-12-10T06:29:39.056Z,82.63
2022-12-10T06:32:07.351Z,84.00
2022-12-10T06:34:39.873Z,83.23
2022-12-10T06:37:12.435Z,81.83
2022-12-10T06:39:40.779Z,81.57
2022-12-10T06:42:10.917Z,83.97
2022-12-10T06:44:39.394Z,87.83
2022-12-10T06:47:07.782Z,92.50
2022-12-10T06:49:36.069Z,76.73
2022-12-10T06:52:04.755Z,87.30
2022-12-10T06:54:34.667Z,88.53
2022-12-10T06:57:03.241Z,81.70
2022-12-10T06:59:31.581Z,80.07
2022-12-10T07:01:59.902Z,85.10
2022-12-10T07:04:28.319Z,81.27
2022-12-10T07:06:56.881Z,79.53
2022-12-10T07:09:25.154Z,82.97
2022-12-10T07:11:54.795Z,78.53
2022-12-10T07:14:23.285Z,77.07
2022-12-10T07:16:51.577Z,77.33
2022-12-10T07:19:19.877Z,80.97
2022-12-10T07:21:48.147Z,79.57
2022-12-10T07:24:18.892Z,76.83
2022-12-10T07:26:48.219Z,81.87
2022-12-10T07:29:19.828Z,86.97
2022-12-10T07:31:49.627Z,83.60
2022-12-10T07:34:18.376Z,79.63
2022-12-10T07:36:46.695Z,79.33
2022-12-10T07:39:18.467Z,78.80
2022-12-10T07:41:47.451Z,79.30
2022-12-10T07:44:17.777Z,70.27
2022-12-10T07:46:46.042Z,79.63
2022-12-10T07:49:14.820Z,79.23
2022-12-10T07:51:46.627Z,77.60
2022-12-10T07:54:15.053Z,77.40
2022-12-10T07:56:43.366Z,74.30
2022-12-10T07:59:12.041Z,72.33
2022-12-10T08:01:42.841Z,74.60
2022-12-10T08:04:11.149Z,72.93
2022-12-10T08:06:39.442Z,79.37
2022-12-10T08:09:07.771Z,72.77
2022-12-10T08:11:36.042Z,71.93
2022-12-10T08:14:04.370Z,75.27
2022-12-10T08:16:33.402Z,70.13
2022-12-10T08:19:03.676Z,71.37
2022-12-10T08:21:34.632Z,75.70
2022-12-10T08:24:03.268Z,70.23
2022-12-10T08:26:34.178Z,71.13
2022-12-10T08:29:03.302Z,69.73
2022-12-10T08:31:37.082Z,72.87
2022-12-10T08:34:12.659Z,73.80
2022-12-10T08:36:40.896Z,75.50
2022-12-10T08:39:11.305Z,72.63
2022-12-10T08:41:39.611Z,71.77
2022-12-10T08:44:07.888Z,69.17
2022-12-10T08:46:36.152Z,70.40
2022-12-10T08:49:05.056Z,70.80
2022-12-10T08:51:34.703Z,74.97
2022-12-10T08:54:03.040Z,82.07
2022-12-10T08:56:32.684Z,78.00
2022-12-10T08:59:01.009Z,76.40
2022-12-10T09:01:29.346Z,75.27
2022-12-10T09:03:57.721Z,75.47
2022-12-10T09:06:26.654Z,79.73
2022-12-10T09:08:56.868Z,75.77
2022-12-10T09:11:27.872Z,83.17
2022-12-10T09:13:56.638Z,70.53
2022-12-10T09:16:30.521Z,76.80
2022-12-10T09:18:59.133Z,73.40
2022-12-10T09:21:27.746Z,67.90
2022-12-10T09:23:57.437Z,70.70
2022-12-10T09:26:26.019Z,72.77
2022-12-10T09:28:55.684Z,74.43
2022-12-10T09:31:24.078Z,76.37
2022-12-10T09:33:54.251Z,72.53
2022-12-10T09:36:25.465Z,71.77
2022-12-10T09:38:58.412Z,67.17
2022-12-10T09:41:44.915Z,67.33
2022-12-10T09:44:23.258Z,71.33
2022-12-10T09:46:54.666Z,71.37
2022-12-10T09:49:32.716Z,64.57
2022-12-10T09:52:03.754Z,68.93
2022-12-10T09:54:35.408Z,69.03
2022-12-10T09:57:07.657Z,67.63
2022-12-10T09:59:40.773Z,65.07
2022-12-10T10:02:22.754Z,64.67
2022-12-10T10:04:52.654Z,61.03
2022-12-10T10:07:23.517Z,66.93
2022-12-10T10:09:57.174Z,59.03
2022-12-10T10:12:25.599Z,61.60
2022-12-10T10:14:53.875Z,59.73
2022-12-10T10:17:33.002Z,60.60
2022-12-10T10:20:01.924Z,59.87
2022-12-10T10:22:31.158Z,60.50
2022-12-10T10:25:03.534Z,60.93
2022-12-10T10:27:33.445Z,59.43
2022-12-10T10:30:05.302Z,64.30
2022-12-10T10:32:48.945Z,61.07
2022-12-10T10:35:27.773Z,61.43
2022-12-10T10:38:00.941Z,63.40
2022-12-10T10:40:34.871Z,61.40
2022-12-10T10:43:03.949Z,60.43
2022-12-10T10:45:42.651Z,61.13
2022-12-10T10:48:16.163Z,63.27
2022-12-10T10:50:46.231Z,61.27
2022-12-10T10:53:45.093Z,64.83
2022-12-10T10:56:18.902Z,71.03
2022-12-10T10:58:52.864Z,78.00
2022-12-10T11:01:21.894Z,68.23
2022-12-10T11:03:55.699Z,61.80
2022-12-10T11:06:24.528Z,64.03
2022-12-10T11:08:56.338Z,62.10
2022-12-10T11:11:34.491Z,65.43
2022-12-10T11:14:17.382Z,62.50
2022-12-10T11:16:45.797Z,58.70
2022-12-10T11:19:22.834Z,61.67
2022-12-10T11:21:52.904Z,58.90
2022-12-10T11:24:22.200Z,60.87
2022-12-10T11:27:04.057Z,62.13
2022-12-10T11:29:49.339Z,69.43
2022-12-10T11:32:35.549Z,60.20
2022-12-10T11:35:12.544Z,60.30
2022-12-10T11:37:45.452Z,59.73
2022-12-10T11:40:28.941Z,56.40
2022-12-10T11:43:08.710Z,54.63
2022-12-10T11:45:54.896Z,58.53
2022-12-10T11:48:38.952Z,58.40
2022-12-10T11:51:19.804Z,60.43
2022-12-10T11:54:03.127Z,58.40
2022-12-10T11:56:35.705Z,60.40
2022-12-10T11:59:46.235Z,57.50
2022-12-10T12:02:32.385Z,55.90
2022-12-10T12:05:20.897Z,57.10
2022-12-10T12:07:58.059Z,56.73
2022-12-10T12:10:54.046Z,65.43
2022-12-10T12:13:27.508Z,58.40
2022-12-10T12:16:01.852Z,60.87
2022-12-10T12:18:41.867Z,56.83
2022-12-10T12:21:13.091Z,58.93
2022-12-10T12:23:50.853Z,59.73
2022-12-10T12:26:25.748Z,66.37
2022-12-10T12:28:58.184Z,70.87
2022-12-10T12:31:34.062Z,116.97
2022-12-10T12:34:07.376Z,79.67
2022-12-10T12:36:36.904Z,126.80
2022-12-10T12:39:14.085Z,133.97
2022-12-10T12:41:49.138Z,77.27
2022-12-10T12:44:23.775Z,62.03
2022-12-10T12:46:53.904Z,61.20
2022-12-10T12:49:26.613Z,57.27
2022-12-10T12:51:59.132Z,58.77
2022-12-10T12:54:27.530Z,57.43
2022-12-10T12:57:11.391Z,60.83
2022-12-10T12:59:51.202Z,55.87
2022-12-10T13:02:46.841Z,58.63
2022-12-10T13:05:17.461Z,61.43
2022-12-10T13:07:47.228Z,59.43
2022-12-10T13:10:26.977Z,59.97
2022-12-10T13:13:18.038Z,60.03
2022-12-10T13:15:46.561Z,60.53
2022-12-10T13:18:36.937Z,64.70
2022-12-10T13:21:31.910Z,61.17
2022-12-10T13:24:12.936Z,61.93
2022-12-10T13:26:59.097Z,64.87
2022-12-10T13:29:28.957Z,56.27
2022-12-10T13:31:59.635Z,61.43
2022-12-10T13:34:38.312Z,59.50
2022-12-10T13:37:17.781Z,62.37
2022-12-10T13:39:56.128Z,59.23
2022-12-10T13:42:51.636Z,60.60
2022-12-10T13:45:32.984Z,59.90
2022-12-10T13:48:27.326Z,56.47
2022-12-10T13:51:12.043Z,56.97
2022-12-10T13:53:52.854Z,62.37
2022-12-10T13:56:30.083Z,61.83
2022-12-10T13:59:13.394Z,63.97
2022-12-10T14:01:50.553Z,65.13
2022-12-10T14:04:50.766Z,68.73
2022-12-10T14:07:21.457Z,63.17
2022-12-10T14:09:53.438Z,61.97
2022-12-10T14:12:27.616Z,64.07
2022-12-10T14:14:59.550Z,62.70
2022-12-10T14:17:34.573Z,64.03
2022-12-10T14:20:07.359Z,64.70
2022-12-10T14:22:40.460Z,64.87
2022-12-10T14:25:15.150Z,62.63
2022-12-10T14:27:43.667Z,63.70
2022-12-10T14:30:19.541Z,64.17
2022-12-10T14:32:48.880Z,60.30
2022-12-10T14:35:24.738Z,65.80
2022-12-10T14:37:58.313Z,65.30
2022-12-10T14:40:29.233Z,63.27
2022-12-10T14:43:05.898Z,62.63
2022-12-10T14:45:44.348Z,62.10
2022-12-10T14:48:14.112Z,69.23
2022-12-10T14:50:42.307Z,65.53
2022-12-10T14:53:16.855Z,68.47
2022-12-10T14:55:46.929Z,71.03
2022-12-10T14:58:19.981Z,63.33
2022-12-10T15:00:49.308Z,69.43
2022-12-10T15:03:28.056Z,69.17
2022-12-10T15:05:58.291Z,68.50
2022-12-10T15:08:29.395Z,69.60
2022-12-10T15:11:00.913Z,71.80
2022-12-10T15:13:35.404Z,73.30
2022-12-10T15:16:04.062Z,72.13
2022-12-10T15:18:34.661Z,70.10
2022-12-10T15:21:11.386Z,72.03
2022-12-10T15:23:43.651Z,71.50
2022-12-10T15:26:22.212Z,74.53
2022-12-10T15:28:51.879Z,72.27
2022-12-10T15:31:24.755Z,76.77
2022-12-10T15:33:55.651Z,79.77
2022-12-10T15:36:32.517Z,78.60
2022-12-10T15:39:05.708Z,78.27
2022-12-10T15:41:44.943Z,79.23
2022-12-10T15:44:26.324Z,82.43
2022-12-10T15:47:01.019Z,84.63
2022-12-10T15:49:29.525Z,87.27
2022-12-10T15:51:58.322Z,81.57
2022-12-10T15:54:33.920Z,94.10
2022-12-10T15:57:02.282Z,89.27
2022-12-10T15:59:30.606Z,89.57
2022-12-10T16:02:00.192Z,84.87
2022-12-10T16:04:28.542Z,79.20
2022-12-10T16:06:56.875Z,84.77
2022-12-10T16:09:25.177Z,82.70
2022-12-10T16:11:54.966Z,85.47
2022-12-10T16:14:23.289Z,85.00
2022-12-10T16:16:51.508Z,84.97
2022-12-10T16:19:22.902Z,80.60
2022-12-10T16:21:51.209Z,76.43
2022-12-10T16:24:19.497Z,84.73
2022-12-10T16:26:47.680Z,84.27
2022-12-10T16:29:19.225Z,97.33
2022-12-10T16:31:47.573Z,91.13
2022-12-10T16:34:15.844Z,79.10
2022-12-10T16:36:44.498Z,82.07
2022-12-10T16:39:15.152Z,85.80
2022-12-10T16:41:43.661Z,81.07
2022-12-10T16:44:12.369Z,77.80
2022-12-10T16:46:45.498Z,82.83
2022-12-10T16:49:13.922Z,84.17
2022-12-10T16:51:44.339Z,94.43
2022-12-10T16:54:14.723Z,92.43
2022-12-10T16:56:43.959Z,82.13
2022-12-10T16:59:12.203Z,89.50
2022-12-10T17:01:40.675Z,90.83
2022-12-10T17:04:12.298Z,97.70
2022-12-10T17:06:40.612Z,90.50
2022-12-10T17:09:08.765Z,93.17
2022-12-10T17:11:49.204Z,100.90
2022-12-10T17:14:24.463Z,91.23
2022-12-10T17:16:54.354Z,92.90
2022-12-10T17:19:24.174Z,95.17
2022-12-10T17:21:52.722Z,98.60
2022-12-10T17:24:21.070Z,100.50
2022-12-10T17:26:50.837Z,91.63
2022-12-10T17:29:22.675Z,99.13
2022-12-10T17:31:51.047Z,110.50
2022-12-10T17:34:19.473Z,92.67
2022-12-10T17:36:49.495Z,95.87
2022-12-10T17:39:22.732Z,105.23
2022-12-10T17:41:51.893Z,96.63
2022-12-10T17:44:22.986Z,93.57
2022-12-10T17:46:51.294Z,99.30
2022-12-10T17:49:20.264Z,96.43
2022-12-10T17:51:49.870Z,93.83
2022-12-10T17:54:18.264Z,98.80
2022-12-10T17:56:47.241Z,86.90
2022-12-10T17:59:16.255Z,81.80
2022-12-10T18:01:48.570Z,90.63
2022-12-10T18:04:18.077Z,92.77
2022-12-10T18:06:46.845Z,93.00
2022-12-10T18:09:16.509Z,91.33
2022-12-10T18:11:46.358Z,91.80
2022-12-10T18:14:15.503Z,99.90
2022-12-10T18:16:44.539Z,92.43
2022-12-10T18:19:15.528Z,93.33
2022-12-10T18:21:44.464Z,91.00
2022-12-10T18:24:13.458Z,83.27
2022-12-10T18:26:44.779Z,87.10
2022-12-10T18:29:15.096Z,87.23
2022-12-10T18:31:45.056Z,81.40
2022-12-10T18:34:16.200Z,82.97
2022-12-10T18:36:46.318Z,80.87
2022-12-10T18:39:18.887Z,85.00
2022-12-10T18:41:49.326Z,74.17
2022-12-10T18:44:20.935Z,74.07
2022-12-10T18:46:51.843Z,75.57
2022-12-10T18:49:21.201Z,79.83
2022-12-10T18:51:49.326Z,72.27
2022-12-10T18:54:18.463Z,74.17
2022-12-10T18:57:31.741Z,84.73
2022-12-10T18:59:36.483Z,70.33
2022-12-10T19:02:04.599Z,83.67
2022-12-10T19:04:32.595Z,77.97
2022-12-10T19:07:01.493Z,81.93
2022-12-10T19:09:32.724Z,85.43
2022-12-10T19:12:02.371Z,78.13
2022-12-10T19:14:30.465Z,87.73
2022-12-10T19:17:01.079Z,80.57
2022-12-10T19:19:29.218Z,81.40
2022-12-10T19:21:57.241Z,78.20
2022-12-10T19:24:25.274Z,80.33
2022-12-10T19:26:53.322Z,80.10
2022-12-10T19:29:24.230Z,83.77
2022-12-10T19:31:52.722Z,92.30
2022-12-10T19:34:21.648Z,86.33
2022-12-10T19:36:50.840Z,89.10
2022-12-10T19:39:20.360Z,89.67
2022-12-10T19:41:48.499Z,91.23
2022-12-10T19:44:16.818Z,90.63
2022-12-10T19:46:46.585Z,89.40
2022-12-10T19:49:16.314Z,86.13
2022-12-10T19:51:44.432Z,104.80
2022-12-10T19:54:12.779Z,98.80
2022-12-10T19:56:42.203Z,98.97
2022-12-10T19:59:15.077Z,96.87
2022-12-10T20:01:43.782Z,89.00
2022-12-10T20:04:14.430Z,98.30
2022-12-10T20:06:44.150Z,100.37
2022-12-10T20:09:19.601Z,92.23
2022-12-10T20:11:48.345Z,103.97
2022-12-10T20:14:16.623Z,104.07
2022-12-10T20:16:44.866Z,100.33
2022-12-10T20:19:16.246Z,101.17
2022-12-10T20:21:44.313Z,121.67
2022-12-10T20:24:13.606Z,106.90
2022-12-10T20:26:43.692Z,111.47
2022-12-10T20:29:18.304Z,103.60
2022-12-10T20:31:47.260Z,106.37
2022-12-10T20:34:17.022Z,108.30
2022-12-10T20:36:45.908Z,107.93
2022-12-10T20:39:19.365Z,117.13
2022-12-10T20:41:48.426Z,113.23
2022-12-10T20:44:16.827Z,116.30
2022-12-10T20:46:45.049Z,124.90
2022-12-10T20:49:13.708Z,125.80
2022-12-10T20:51:43.258Z,119.83
2022-12-10T20:54:12.305Z,125.10
2022-12-10T20:56:40.620Z,130.50
2022-12-10T20:59:08.956Z,131.10
2022-12-10T21:01:37.038Z,138.13
2022-12-10T21:04:05.511Z,145.93
2022-12-10T21:06:34.025Z,131.13
2022-12-10T21:09:03.493Z,125.40
2022-12-10T21:11:31.524Z,133.33
2022-12-10T21:13:59.551Z,147.67
2022-12-10T21:16:28.133Z,149.60
2022-12-10T21:18:56.432Z,148.73
2022-12-10T21:21:26.743Z,136.00
2022-12-10T21:23:56.053Z,194.10
2022-12-10T21:26:26.581Z,181.10
2022-12-10T21:28:54.621Z,186.03
2022-12-10T21:31:25.715Z,209.07
2022-12-10T21:33:54.260Z,201.23
2022-12-10T21:36:23.904Z,234.20
2022-12-10T21:38:53.372Z,222.33
2022-12-10T21:41:41.328Z,221.93
2022-12-10T21:44:11.020Z,261.50
2022-12-10T21:46:40.407Z,221.70
2022-12-10T21:49:09.585Z,237.47
2022-12-10T21:51:40.174Z,241.70
2022-12-10T21:54:09.136Z,284.50
2022-12-10T21:56:37.378Z,259.97
2022-12-10T21:59:05.656Z,251.83
2022-12-10T22:01:35.143Z,221.23
2022-12-10T22:04:03.283Z,214.63
2022-12-10T22:06:31.469Z,276.90
2022-12-10T22:08:59.508Z,237.70
2022-12-10T22:11:27.753Z,198.90
2022-12-10T22:13:56.018Z,209.67
2022-12-10T22:16:24.498Z,227.00
2022-12-10T22:18:53.900Z,230.17
2022-12-10T22:21:23.805Z,204.10
2022-12-10T22:23:52.587Z,202.90
2022-12-10T22:26:21.099Z,200.90
2022-12-10T22:28:49.370Z,211.13
2022-12-10T22:31:17.628Z,181.37
2022-12-10T22:33:46.422Z,222.07
2022-12-10T22:36:19.005Z,195.00
2022-12-10T22:38:47.776Z,94.27
2022-12-10T22:41:16.575Z,91.50
2022-12-10T22:43:52.237Z,99.13
2022-12-10T22:46:21.010Z,74.23
2022-12-10T22:48:49.287Z,80.47
2022-12-10T22:51:19.161Z,107.70
2022-12-10T22:53:47.319Z,127.60
2022-12-10T22:56:16.437Z,108.57
2022-12-10T22:58:45.008Z,123.10
2022-12-10T23:01:17.082Z,105.43
2022-12-10T23:03:45.256Z,131.30
2022-12-10T23:06:13.608Z,118.93
2022-12-10T23:08:43.293Z,135.13
2022-12-10T23:11:12.937Z,152.57
2022-12-10T23:13:41.361Z,183.10
2022-12-10T23:16:14.028Z,139.97
2022-12-10T23:18:42.656Z,161.53
2022-12-10T23:21:19.037Z,183.87
2022-12-10T23:23:48.817Z,155.30
2022-12-10T23:26:17.340Z,151.20
2022-12-10T23:28:45.484Z,166.60
2022-12-10T23:31:14.983Z,160.80
2022-12-10T23:33:44.051Z,132.20
2022-12-10T23:36:12.609Z,167.97
2022-12-10T23:38:41.027Z,154.83
2022-12-10T23:41:12.641Z,146.57
2022-12-10T23:43:40.881Z,187.63
2022-12-10T23:46:09.391Z,153.50
2022-12-10T23:48:38.055Z,165.00
2022-12-10T23:51:06.393Z,176.97
2022-12-10T23:53:34.975Z,129.03
2022-12-10T23:56:05.651Z,136.60
2022-12-10T23:58:35.112Z,158.00
